tititudorancea.com
Station Historical Data
Daily Summary for July 28, 2018 Units:  Metric    English   Both
« Previous Day
Next Day »
Daily Weekly Monthly Yearly Custom
  High: Low: Average:
Temperature: -17.8 °C 6.8 °C 11.3 °C
Dew Point: -17.8 °C 4.5 °C 7.7 °C
Humidity: Humidity % 58 % 79 %
Wind Speed: 0 km/h 0 km/h 9.5 km/h
Wind Gust: 0 km/h - -
Wind:- - South
Pressure: 0 hPa 1001.2 hPa -
Precipitation: 2.29 mm    
Historical Graphs
 
 
Ararat weather Find more about Weather in Ararat, AU


 



 


Tabular Data for July 28, 2018
Time Temperature Dew Point Pressure Wind Wind Speed Wind Gust Humidity Rainfall Rate (Hourly)
-17.8 °C -17.8 °C 0 hPa Calm     Humidity % 0 mm
00:04 10.1 °C 6.2 °C 1011.7 hPa NNW 11.1 km/h 6.9 km/h 77 % 0 mm
00:09 9.9 °C 6.1 °C 1012.1 hPa NNW 14.8 km/h 6.8 km/h 77 % 0 mm
00:14 9.9 °C 6.3 °C 1012.1 hPa NNW 11.3 km/h 7.7 km/h 78 % 0 mm
00:19 9.9 °C 6.3 °C 1011.7 hPa North 13 km/h 9.2 km/h 78 % 0 mm
00:24 9.9 °C 6.1 °C 1011.7 hPa North 11.1 km/h 7.6 km/h 77 % 0 mm
00:29 9.9 °C 6.1 °C 1011.7 hPa NNW 9.3 km/h 6.1 km/h 77 % 0 mm
00:34 9.9 °C 6.1 °C 1011.7 hPa North 9.3 km/h 8 km/h 77 % 0 mm
00:39 9.8 °C 6.1 °C 1011.7 hPa NNW 13 km/h 6.1 km/h 78 % 0 mm
00:44 9.7 °C 6.1 °C 1011.7 hPa North 5.6 km/h 5.1 km/h 78 % 0 mm
00:49 9.6 °C 5.9 °C 1011.7 hPa NNW 7.4 km/h 6.4 km/h 78 % 0 mm
00:54 9.4 °C 5.8 °C 1011.7 hPa NNW 9.3 km/h 5.5 km/h 78 % 0 mm
00:59 9.3 °C 5.8 °C 1011.7 hPa NNW 9.3 km/h 5.5 km/h 79 % 0 mm
01:04 9.2 °C 5.9 °C 1011.7 hPa North 7.4 km/h 4.8 km/h 80 % 0 mm
01:09 9.2 °C 5.9 °C 1011.7 hPa North 9.3 km/h 6.1 km/h 80 % 0 mm
01:14 9.1 °C 5.8 °C 1011.7 hPa North 7.4 km/h 4.7 km/h 80 % 0 mm
01:19 9 °C 5.7 °C 1011.7 hPa NNW 5.6 km/h 3.9 km/h 80 % 0 mm
01:24 8.9 °C 5.8 °C 1011.7 hPa North 9.3 km/h 5.3 km/h 81 % 0 mm
01:29 8.9 °C 5.8 °C 1011.7 hPa NNW 6.4 km/h 4.3 km/h 81 % 0 mm
01:34 8.8 °C 5.7 °C 1011.7 hPa NNW 7.4 km/h 3.5 km/h 81 % 0 mm
01:39 8.8 °C 5.9 °C 1011.4 hPa North 8 km/h 4.3 km/h 82 % 0 mm
01:44 8.9 °C 6 °C 1011.4 hPa North 5.6 km/h 3.5 km/h 82 % 0 mm
01:49 8.8 °C 5.9 °C 1011.4 hPa North 6.4 km/h 4.7 km/h 82 % 0 mm
01:54 8.8 °C 5.9 °C 1011.4 hPa NNW 7.4 km/h 4 km/h 82 % 0 mm
01:59 8.9 °C 6 °C 1011.4 hPa NNW 6.4 km/h 2.9 km/h 82 % 0 mm
02:04 8.9 °C 6 °C 1011.4 hPa North 5.6 km/h 5.1 km/h 82 % 0 mm
02:09 8.9 °C 6 °C 1011.4 hPa NNW 5.6 km/h 1.4 km/h 82 % 0 mm
02:14 8.9 °C 6 °C 1011.4 hPa NNW 5.6 km/h 3.5 km/h 82 % 0 mm
02:19 8.9 °C 6 °C 1011.7 hPa NNW 6.4 km/h 3.7 km/h 82 % 0 mm
02:24 8.9 °C 6 °C 1011.7 hPa North 5.6 km/h 0.5 km/h 82 % 0 mm
02:29 8.8 °C 5.9 °C 1011.4 hPa NNW 5.6 km/h 2.3 km/h 82 % 0 mm
02:34 8.5 °C 5.4 °C 1011.4 hPa Calm     81 % 0 mm
02:39 7.9 °C 4.8 °C 1011.4 hPa NNW 1.9 km/h 1.9 km/h 81 % 0 mm
02:44 7.4 °C 4.5 °C 1011.4 hPa NNW 3.7 km/h 1.8 km/h 82 % 0 mm
02:49 7.2 °C 4.7 °C 1011.4 hPa NNW 4.8 km/h 2.3 km/h 84 % 0 mm
02:54 7.2 °C 5 °C 1011.4 hPa NNW 5.6 km/h 2.1 km/h 86 % 0 mm
02:59 7.2 °C 5 °C 1011.4 hPa North 5.6 km/h 3.2 km/h 86 % 0 mm
03:04 7.2 °C 5.2 °C 1011.4 hPa NNW 5.6 km/h 4.3 km/h 87 % 0 mm
03:09 7.2 °C 5.2 °C 1011.4 hPa NNW 5.6 km/h 3.2 km/h 87 % 0 mm
03:14 7.2 °C 5.2 °C 1011.4 hPa NNW 3.7 km/h 3.1 km/h 87 % 0 mm
03:19 7.2 °C 5.2 °C 1011.4 hPa NNW 5.6 km/h 2.7 km/h 87 % 0 mm
03:24 7.1 °C 5.3 °C 1011.4 hPa NNW 5.6 km/h 4 km/h 88 % 0 mm
03:29 7.2 °C 5.3 °C 1011.4 hPa NNW 5.6 km/h 4 km/h 88 % 0 mm
03:34 7.1 °C 5.3 °C 1011.4 hPa NNW 5.6 km/h 4.7 km/h 88 % 0 mm
03:39 7.1 °C 5.2 °C 1011.4 hPa North 5.6 km/h 4.7 km/h 88 % 0 mm
03:44 7.1 °C 5.4 °C 1011.4 hPa NNW 7.4 km/h 6 km/h 89 % 0 mm
03:49 7.3 °C 5.6 °C 1011.4 hPa NNW 8 km/h 5.3 km/h 89 % 0 mm
03:54 7.6 °C 6.1 °C 1011.4 hPa North 11.3 km/h 8.9 km/h 90 % 0 mm
03:59 7.9 °C 6.3 °C 1011.4 hPa North 9.3 km/h 7.9 km/h 90 % 0 mm
04:04 8.1 °C 6.4 °C 1011.4 hPa NNW 7.4 km/h 5 km/h 89 % 0 mm
04:09 8.4 °C 6.7 °C 1011.4 hPa NNW 5.6 km/h 5.6 km/h 89 % 0 mm
04:14 8.6 °C 6.7 °C 1011.4 hPa North 5.6 km/h 2.7 km/h 88 % 0 mm
04:19 8.7 °C 6.8 °C 1011.4 hPa NNW 3.7 km/h 2.1 km/h 88 % 0 mm
04:24 8.6 °C 6.6 °C 1011.4 hPa NNW 3.7 km/h 2.9 km/h 87 % 0 mm
04:29 8.3 °C 6.1 °C 1011.4 hPa North 3.7 km/h 1.3 km/h 86 % 0 mm
04:34 8.1 °C 5.8 °C 1011.4 hPa Calm     86 % 0 mm
04:39 7.8 °C 5.6 °C 1011.4 hPa Calm     86 % 0 mm
04:44 7.7 °C 5.5 °C 1011.4 hPa Calm     86 % 0 mm
04:49 7.7 °C 5.7 °C 1011.4 hPa North 5.6 km/h 2.7 km/h 87 % 0 mm
04:54 7.6 °C 5.7 °C 1011.4 hPa NNW 3.2 km/h 1.3 km/h 88 % 0 mm
04:59 7.7 °C 5.8 °C 1011.4 hPa NNW 1.9 km/h   88 % 0 mm
05:04 7.8 °C 6.1 °C 1011.4 hPa Calm     89 % 0 mm
05:09 7.8 °C 5.9 °C 1011.4 hPa NNW 3.7 km/h 1.6 km/h 88 % 0 mm
05:14 7.8 °C 6.1 °C 1011.4 hPa North 3.7 km/h   89 % 0 mm
05:19 7.9 °C 6.2 °C 1011.4 hPa NNW 3.7 km/h 2.4 km/h 89 % 0 mm
05:24 7.9 °C 6 °C 1011.4 hPa Calm     88 % 0 mm
05:29 7.8 °C 5.9 °C 1011.4 hPa North 3.7 km/h 2.9 km/h 88 % 0 mm
05:34 7.6 °C 5.7 °C 1011.4 hPa North 3.7 km/h 1.6 km/h 88 % 0 mm
05:39 7.7 °C 5.9 °C 1011.4 hPa Calm     89 % 0 mm
05:44 7.6 °C 5.9 °C 1011.4 hPa Calm     89 % 0 mm
05:49 7.5 °C 5.8 °C 1011.4 hPa Calm     89 % 0 mm
05:54 7.4 °C 5.7 °C 1011.4 hPa Calm     89 % 0 mm
05:59 7.3 °C 5.6 °C 1011.4 hPa Calm     89 % 0 mm
06:04 7.2 °C 5.5 °C 1011.4 hPa Calm     89 % 0 mm
06:09 7.1 °C 5.4 °C 1011.4 hPa Calm     89 % 0 mm
06:14 7 °C 5.4 °C 1011.4 hPa Calm     90 % 0 mm
06:19 6.9 °C 5.4 °C 1011.4 hPa Calm     90 % 0 mm
06:24 6.8 °C 5.3 °C 1011.4 hPa NNW 3.7 km/h 2.6 km/h 90 % 0 mm
06:29 6.8 °C 5.3 °C 1011.4 hPa Calm     90 % 0 mm
06:34 6.8 °C 5.3 °C 1011.4 hPa Calm     90 % 0 mm
06:39 6.8 °C 5.3 °C 1011.4 hPa Calm     90 % 0 mm
06:44 6.8 °C 5.4 °C 1011.4 hPa NNW 5.6 km/h 2.9 km/h 91 % 0 mm
06:49 6.9 °C 5.5 °C 1011.4 hPa Calm     91 % 0 mm
06:54 7.2 °C 5.9 °C 1011.4 hPa NNW 3.2 km/h 1.9 km/h 92 % 0 mm
06:59 7.3 °C 6.1 °C 1011.4 hPa NNW 3.7 km/h 2.3 km/h 92 % 0 mm
07:04 7.4 °C 6 °C 1011.4 hPa NNW 3.7 km/h 2.7 km/h 91 % 0 mm
07:09 7.4 °C 6 °C 1011.4 hPa NNW 5.6 km/h 4.5 km/h 91 % 0 mm
07:14 7.5 °C 6.3 °C 1011.4 hPa NNW 7.4 km/h 7.1 km/h 92 % 0 mm
07:15 7.5 °C 6.3 °C 1011.4 hPa NNW 7.4 km/h 6.3 km/h 92 % 0 mm
07:24 7.6 °C 6.4 °C 1011.4 hPa NNW 7.4 km/h 5.3 km/h 92 % 0 mm
07:29 7.7 °C 6.3 °C 1011.4 hPa NNW 5.6 km/h 5.3 km/h 91 % 0 mm
07:34 7.6 °C 6.2 °C 1011.4 hPa North 5.6 km/h 5.3 km/h 91 % 0 mm
07:39 7.6 °C 6.2 °C 1011.4 hPa North 5.6 km/h 4.7 km/h 91 % 0 mm
07:44 7.6 °C 6.2 °C 1011.4 hPa NNW 5.6 km/h 4.3 km/h 91 % 0 mm
07:49 7.6 °C 6.2 °C 1011.4 hPa NNW 7.4 km/h 3.7 km/h 91 % 0 mm
07:54 7.5 °C 6.1 °C 1011.4 hPa NNW 8 km/h 4.2 km/h 91 % 0 mm
07:59 7.5 °C 6.1 °C 1011.4 hPa NNW 7.4 km/h 4.7 km/h 91 % 0 mm
08:04 7.6 °C 6.2 °C 1011.4 hPa NNW 5.6 km/h 3.7 km/h 91 % 0 mm
08:09 7.7 °C 6.3 °C 1011.4 hPa North 5.6 km/h 2.7 km/h 91 % 0 mm
08:14 7.7 °C 6.3 °C 1011.4 hPa Calm     91 % 0 mm
08:19 7.9 °C 6.6 °C 1011.4 hPa NNW 8 km/h 7.2 km/h 91 % 0 mm
08:24 8.1 °C 6.7 °C 1011.7 hPa North 13 km/h 9.7 km/h 91 % 0 mm
08:29 8.3 °C 6.9 °C 1011.7 hPa NNW 9.3 km/h 5.1 km/h 91 % 0 mm
08:34 8.6 °C 7.2 °C 1011.7 hPa North 9.3 km/h 7.4 km/h 91 % 0 mm
08:39 8.9 °C 7.3 °C 1011.7 hPa NNW 11.1 km/h 7.2 km/h 90 % 0 mm
08:44 9.1 °C 7.4 °C 1011.7 hPa NNW 14.5 km/h 13 km/h 89 % 0 mm
08:49 9.3 °C 7.4 °C 1011.7 hPa North 11.1 km/h 10.5 km/h 88 % 0 mm
08:54 9.5 °C 7.4 °C 1011.7 hPa North 9.3 km/h 7.6 km/h 87 % 0 mm
08:59 9.7 °C 7.4 °C 1011.7 hPa North 9.3 km/h 4.5 km/h 86 % 0 mm
09:04 9.9 °C 7.5 °C 1011.7 hPa NNW 9.3 km/h 8.4 km/h 85 % 0 mm
09:09 10.1 °C 7.7 °C 1011.7 hPa NNW 9.3 km/h 6.1 km/h 85 % 0 mm
09:14 10.4 °C 7.8 °C 1011.7 hPa North 9.3 km/h 10.3 km/h 84 % 0 mm
09:19 10.5 °C 7.7 °C 1011.7 hPa NNW 11.1 km/h 5.5 km/h 83 % 0 mm
09:24 10.7 °C 7.8 °C 1011.7 hPa NNW 14.8 km/h 9.3 km/h 82 % 0 mm
09:29 10.9 °C 7.9 °C 1011.7 hPa NNW 13 km/h 8 km/h 82 % 0 mm
09:34 11 °C 7.9 °C 1011.7 hPa NNW 11.1 km/h 6.6 km/h 81 % 0 mm
09:39 11.2 °C 8.1 °C 1011.4 hPa NNW 16.7 km/h 8.7 km/h 81 % 0 mm
09:44 11.4 °C 8.1 °C 1011.4 hPa North 8 km/h 7.6 km/h 80 % 0 mm
09:49 11.7 °C 8.2 °C 1011.4 hPa North 11.1 km/h 6.1 km/h 79 % 0 mm
09:54 11.9 °C 8.2 °C 1011.7 hPa North 9.3 km/h 7.6 km/h 78 % 0 mm
09:59 12.2 °C 8.3 °C 1011.4 hPa North 14.8 km/h 8.5 km/h 77 % 0 mm
10:04 12.3 °C 8.2 °C 1011.4 hPa North 13 km/h 8.5 km/h 76 % 0 mm
10:09 12.6 °C 8.2 °C 1011.4 hPa North 11.1 km/h 5 km/h 75 % 0 mm
10:14 12.7 °C 8.4 °C 1011.7 hPa North 9.3 km/h 5.1 km/h 75 % 0 mm
10:19 13 °C 8.1 °C 1011.7 hPa North 14.8 km/h 6.4 km/h 72 % 0 mm
10:24 12.9 °C 7.8 °C 1011.7 hPa NNW 13 km/h 9.7 km/h 71 % 0 mm
10:29 12.9 °C 7.6 °C 1011.7 hPa North 16.1 km/h 11.9 km/h 70 % 0 mm
10:34 12.8 °C 7.7 °C 1011.7 hPa NNW 14.8 km/h 10 km/h 71 % 0 mm
10:39 13.1 °C 7.9 °C 1011.4 hPa NNW 11.3 km/h 8 km/h 71 % 0 mm
10:44 13.3 °C 7.9 °C 1011.4 hPa NNW 9.3 km/h 8.9 km/h 70 % 0 mm
10:49 13.4 °C 7.9 °C 1011.4 hPa NNW 11.1 km/h 7.7 km/h 69 % 0 mm
10:54 13.7 °C 8.1 °C 1011.4 hPa NNW 11.1 km/h 7.1 km/h 69 % 0 mm
10:59 13.7 °C 7.9 °C 1011.1 hPa NNW 9.3 km/h 7.4 km/h 68 % 0 mm
11:04 13.7 °C 7.9 °C 1011.1 hPa NNW 18.5 km/h 10.6 km/h 68 % 0 mm
11:09 13.9 °C 8.1 °C 1011.1 hPa NNW 11.1 km/h 6 km/h 68 % 0 mm
11:14 14.1 °C 8.5 °C 1011.1 hPa North 12.9 km/h 11.7 km/h 69 % 0 mm
11:19 14.1 °C 8.3 °C 1011.1 hPa North 13 km/h 9 km/h 68 % 0 mm
11:24 14.1 °C 8.4 °C 1010.7 hPa North 18.5 km/h 11.1 km/h 69 % 0 mm
11:29 14 °C 8.4 °C 1010.7 hPa North 18.5 km/h 6 km/h 69 % 0 mm
11:34 14.1 °C 8.5 °C 1010.7 hPa North 14.8 km/h 8.2 km/h 69 % 0 mm
11:39 14.2 °C 8.8 °C 1010.4 hPa North 14.8 km/h 12.2 km/h 70 % 0 mm
11:44 14.4 °C 8.8 °C 1010.4 hPa North 14.8 km/h 7.6 km/h 69 % 0 mm
11:49 14.5 °C 8.9 °C 1010.4 hPa North 14.8 km/h 10 km/h 69 % 0 mm
11:54 14.7 °C 9.1 °C 1010.4 hPa North 13 km/h 9.3 km/h 69 % 0 mm
11:59 14.6 °C 8.8 °C 1010 hPa NNW 16.7 km/h 11.6 km/h 68 % 0 mm
12:04 14.6 °C 9.2 °C 1010 hPa North 11.3 km/h 9.3 km/h 70 % 0 mm
12:09 14.8 °C 9.2 °C 1009.7 hPa North 16.7 km/h 12.2 km/h 69 % 0 mm
12:14 15 °C 9.1 °C 1009.7 hPa North 18.5 km/h 12.2 km/h 68 % 0 mm
12:19 15.1 °C 9.2 °C 1009.7 hPa North 22.2 km/h 12.9 km/h 68 % 0 mm
12:24 15.3 °C 9.4 °C 1009.4 hPa North 14.5 km/h 11.9 km/h 68 % 0 mm
12:29 15.4 °C 9.3 °C 1009.4 hPa North 16.7 km/h 12.1 km/h 67 % 0 mm
12:34 15.6 °C 9.4 °C 1009.4 hPa North 14.8 km/h 8.4 km/h 67 % 0 mm
12:39 15.5 °C 9.6 °C 1009 hPa NNW 11.1 km/h 9 km/h 68 % 0 mm
12:44 15.5 °C 9.4 °C 1009 hPa North 18.5 km/h 10.8 km/h 67 % 0 mm
12:49 15.7 °C 9.4 °C 1009 hPa North 18.5 km/h 7.6 km/h 66 % 0 mm
12:54 15.8 °C 9.4 °C 1008.7 hPa North 14.8 km/h 8.2 km/h 66 % 0 mm
12:59 15.8 °C 9.4 °C 1008.7 hPa North 14.8 km/h 9.5 km/h 66 % 0 mm
13:04 15.9 °C 9.8 °C 1008.7 hPa North 16.7 km/h 8 km/h 67 % 0 mm
13:09 16.1 °C 9.7 °C 1008.7 hPa North 18.5 km/h 9.8 km/h 66 % 0 mm
13:14 16.1 °C 9.7 °C 1008.4 hPa North 16.7 km/h 10 km/h 66 % 0 mm
13:19 16 °C 9.9 °C 1008.4 hPa North 14.8 km/h 11.6 km/h 67 % 0 mm
13:24 16 °C 9.4 °C 1008 hPa NNW 20.4 km/h 13.7 km/h 65 % 0 mm
13:29 15.9 °C 9.6 °C 1008 hPa North 13 km/h 10.6 km/h 66 % 0 mm
13:34 15.9 °C 9.6 °C 1008 hPa NNW 18.5 km/h 10 km/h 66 % 0 mm
13:39 16.2 °C 9.8 °C 1008 hPa North 18.5 km/h 9.8 km/h 66 % 0 mm
13:44 16.3 °C 9.9 °C 1008 hPa North 11.1 km/h 9.7 km/h 66 % 0 mm
13:49 16.3 °C 9.7 °C 1007.7 hPa North 16.7 km/h 10.1 km/h 65 % 0 mm
13:54 16.3 °C 9.7 °C 1007.7 hPa North 18.5 km/h 12.1 km/h 65 % 0 mm
13:59 16.1 °C 9.5 °C 1007.3 hPa NNE 16.7 km/h 10.6 km/h 65 % 0 mm
14:04 15.9 °C 9.4 °C 1007.3 hPa North 9.3 km/h 8.4 km/h 65 % 0 mm
14:09 15.8 °C 9.3 °C 1007.3 hPa North 11.1 km/h 7.1 km/h 65 % 0 mm
14:14 15.9 °C 9.6 °C 1007.3 hPa North 16.7 km/h 10 km/h 66 % 0 mm
14:19 16 °C 9.7 °C 1007.3 hPa NNE 11.1 km/h 7.2 km/h 66 % 0 mm
14:24 16.3 °C 9.4 °C 1007 hPa North 11.1 km/h 6 km/h 64 % 0 mm
14:29 16.3 °C 9.5 °C 1007 hPa North 9.3 km/h 7.7 km/h 64 % 0 mm
14:34 16.4 °C 9.6 °C 1007 hPa North 14.8 km/h 8.5 km/h 64 % 0 mm
14:39 16.5 °C 9.4 °C 1006.7 hPa North 11.3 km/h 7.4 km/h 63 % 0 mm
14:44 16.7 °C 9.2 °C 1006.7 hPa North 14.8 km/h 8 km/h 61 % 0 mm
14:49 16.8 °C 9 °C 1006.7 hPa North 13 km/h 8.5 km/h 60 % 0 mm
14:54 16.9 °C 9.1 °C 1006.7 hPa North 13 km/h 4.8 km/h 60 % 0 mm
14:59 16.9 °C 8.6 °C 1006.7 hPa North 11.3 km/h 11.6 km/h 58 % 0 mm
15:04 16.9 °C 8.6 °C 1006.7 hPa NNE 18.5 km/h 11.7 km/h 58 % 0 mm
15:09 16.8 °C 8.9 °C 1006.3 hPa NNE 13 km/h 3.4 km/h 60 % 0 mm
15:14 16.9 °C 8.8 °C 1006.3 hPa NNE 22.2 km/h 9.8 km/h 59 % 0 mm
15:19 16.8 °C 8.8 °C 1006.3 hPa NNE 13 km/h 7.7 km/h 59 % 0 mm
15:24 16.8 °C 9 °C 1006.3 hPa NNE 7.4 km/h 5.3 km/h 60 % 0 mm
15:29 17.1 °C 9 °C 1006.3 hPa NNE 11.1 km/h 7.6 km/h 59 % 0 mm
15:34 16.9 °C 8.9 °C 1006.3 hPa NNE 13 km/h 6.4 km/h 59 % 0 mm
15:39 16.7 °C 8.9 °C 1006.3 hPa NNE 16.7 km/h 9.5 km/h 60 % 0 mm
15:44 16.7 °C 8.9 °C 1006 hPa NNE 13 km/h 5.3 km/h 60 % 0 mm
15:49 16.8 °C 8.7 °C 1006 hPa NNE 16.1 km/h 11.4 km/h 59 % 0 mm
15:54 16.6 °C 8.6 °C 1006 hPa NNE 13 km/h 5.5 km/h 59 % 0 mm
15:59 16.2 °C 7.9 °C 1006 hPa NNE 18.5 km/h 8.7 km/h 58 % 0 mm
16:04 16 °C 8.2 °C 1006 hPa NNE 16.7 km/h 9 km/h 60 % 0 mm
16:09 15.9 °C 8.1 °C 1006 hPa NNE 18.5 km/h 12.2 km/h 60 % 0 mm
16:14 15.7 °C 8.4 °C 1006 hPa NNE 9.3 km/h 7.1 km/h 62 % 0 mm
16:19 15.7 °C 8.4 °C 1006 hPa NNE 13 km/h 8.5 km/h 62 % 0 mm
16:24 15.6 °C 8.3 °C 1005.6 hPa NNE 7.4 km/h 6.1 km/h 62 % 0 mm
16:29 15.5 °C 8.5 °C 1005.6 hPa NNE 7.4 km/h 4.8 km/h 63 % 0 mm
16:34 15.4 °C 8.4 °C 1005.6 hPa NNE 5.6 km/h 6.3 km/h 63 % 0 mm
16:39 15.3 °C 8.3 °C 1005.6 hPa NNE 9.3 km/h 6 km/h 63 % 0 mm
16:44 15.2 °C 8.4 °C 1005.6 hPa NNE 9.3 km/h 4.7 km/h 64 % 0 mm
16:49 15 °C 8.2 °C 1005.6 hPa NNE 13 km/h 3.7 km/h 64 % 0 mm
16:54 14.9 °C 8.2 °C 1005.6 hPa NNE 7.4 km/h 4.8 km/h 64 % 0 mm
16:59 14.9 °C 8.4 °C 1005.6 hPa NNE 5.6 km/h 1.9 km/h 65 % 0 mm
17:04 14.8 °C 8.3 °C 1005.6 hPa NNE 7.4 km/h 6.3 km/h 65 % 0 mm
17:09 14.7 °C 8.4 °C 1005.3 hPa NNE 8 km/h 3.4 km/h 66 % 0 mm
17:14 14.6 °C 8.3 °C 1005.6 hPa NNE 5.6 km/h 2.1 km/h 66 % 0 mm
17:19 14.3 °C 8.3 °C 1005.6 hPa NNE 5.6 km/h 2.6 km/h 67 % 0 mm
17:24 14.1 °C 8.3 °C 1005.6 hPa NNE 5.6 km/h 3.5 km/h 68 % 0 mm
17:29 13.9 °C 8.1 °C 1005.6 hPa NNE 5.6 km/h 2.4 km/h 68 % 0 mm
17:34 13.8 °C 8.2 °C 1005.6 hPa Calm     69 % 0 mm
17:39 13.7 °C 8.3 °C 1005.6 hPa NNE 5.6 km/h 2.9 km/h 70 % 0 mm
17:44 13.6 °C 8.2 °C 1005.3 hPa NNE 3.7 km/h 1.9 km/h 70 % 0 mm
17:49 13.5 °C 8.3 °C 1005.3 hPa NNE 5.6 km/h 2.6 km/h 71 % 0 mm
17:54 13.4 °C 8.2 °C 1005.3 hPa NNE 5.6 km/h 2.7 km/h 71 % 0 mm
17:59 13.3 °C 8.3 °C 1005.3 hPa NNE 5.6 km/h 4 km/h 72 % 0 mm
18:04 13.2 °C 8.2 °C 1005.3 hPa NNE 5.6 km/h 3.7 km/h 72 % 0 mm
18:09 13.1 °C 8.4 °C 1005.3 hPa NNE 8 km/h 6.1 km/h 73 % 0 mm
18:14 13 °C 8.4 °C 1005.3 hPa NNE 5.6 km/h 3.9 km/h 74 % 0 mm
18:19 12.9 °C 8.4 °C 1005.3 hPa NNE 5.6 km/h 2.1 km/h 74 % 0 mm
18:24 12.9 °C 8.4 °C 1005.3 hPa NNE 5.6 km/h 0.3 km/h 74 % 0 mm
18:29 12.8 °C 8.4 °C 1005.3 hPa NNE 6.4 km/h 4.3 km/h 75 % 0 mm
18:34 12.8 °C 8.4 °C 1005.3 hPa NNE 6.4 km/h 5 km/h 75 % 0 mm
18:39 12.7 °C 8.7 °C 1005.3 hPa NNE 11.3 km/h 9.8 km/h 77 % 0 mm
18:44 12.5 °C 8.9 °C 1005.3 hPa NNE 16.7 km/h 7.9 km/h 79 % 0 mm
18:49 12.4 °C 9.1 °C 1005 hPa NNE 18.5 km/h 6.4 km/h 80 % 0 mm
18:54 12.3 °C 9.1 °C 1005 hPa NNE 13 km/h 9.8 km/h 81 % 0 mm
18:59 12.2 °C 9.2 °C 1005 hPa NNE 8 km/h 5.6 km/h 82 % 0 mm
19:04 12 °C 9.4 °C 1005 hPa NNE 7.4 km/h 4.7 km/h 84 % 0.25 mm
19:09 11.9 °C 9.3 °C 1005 hPa NNE 13 km/h 6 km/h 84 % 0.25 mm
19:14 11.7 °C 9.3 °C 1005 hPa NNE 13 km/h 7.1 km/h 85 % 0.25 mm
19:19 11.7 °C 9.4 °C 1005 hPa NNE 9.3 km/h 8.5 km/h 86 % 0.25 mm
19:24 11.6 °C 9.5 °C 1005 hPa NNE 13 km/h 10.3 km/h 87 % 0.25 mm
19:29 11.6 °C 9.4 °C 1005 hPa NNE 11.1 km/h 7.2 km/h 87 % 0.25 mm
19:34 11.5 °C 9.4 °C 1005 hPa NNE 11.1 km/h 6.1 km/h 87 % 0.25 mm
19:39 11.5 °C 9.6 °C 1005 hPa NNE 11.1 km/h 8 km/h 88 % 0.25 mm
19:44 11.4 °C 9.5 °C 1005 hPa NNE 11.3 km/h 8.4 km/h 88 % 0.51 mm
19:49 11.4 °C 9.5 °C 1005 hPa NNE 11.1 km/h 6.6 km/h 88 % 0.51 mm
19:54 11.4 °C 9.4 °C 1005 hPa NNE 9.7 km/h 7.4 km/h 88 % 0.51 mm
19:59 11.3 °C 9.4 °C 1005 hPa NNE 11.1 km/h 7.4 km/h 88 % 0.51 mm
20:04 11.3 °C 9.4 °C 1005 hPa NNE 7.4 km/h 3.4 km/h 88 % 0.51 mm
20:09 11.2 °C 9.3 °C 1005.3 hPa NNE 5.6 km/h 4 km/h 88 % 0.51 mm
20:14 11.2 °C 9.4 °C 1005 hPa NNE 5.6 km/h 3.9 km/h 89 % 0.76 mm
20:19 11.1 °C 9.4 °C 1005 hPa NNE 6.4 km/h 3.2 km/h 89 % 0.76 mm
20:24 11 °C 9.3 °C 1005 hPa NNE 5.6 km/h 4.2 km/h 89 % 1.02 mm
20:29 11 °C 9.4 °C 1005 hPa NNE 6.4 km/h 5.6 km/h 90 % 1.02 mm
20:34 10.9 °C 9.4 °C 1005 hPa NNE 5.6 km/h 5.5 km/h 90 % 1.27 mm
20:39 10.9 °C 9.4 °C 1005 hPa NNE 8 km/h 5.1 km/h 90 % 1.27 mm
20:44 10.9 °C 9.3 °C 1005 hPa NNE 7.4 km/h 4.3 km/h 90 % 1.02 mm
20:49 10.8 °C 9.3 °C 1004.6 hPa NNE 5.6 km/h 4 km/h 90 % 1.27 mm
20:54 10.8 °C 9.4 °C 1004.6 hPa NNE 7.4 km/h 2.9 km/h 91 % 1.27 mm
20:59 10.8 °C 9.4 °C 1004.6 hPa NNE 7.4 km/h 3.2 km/h 91 % 1.27 mm
21:04 10.7 °C 9.3 °C 1004.6 hPa NNE 5.6 km/h 4.8 km/h 91 % 1.27 mm
21:09 10.7 °C 9.3 °C 1004.6 hPa NNE 5.6 km/h 3.4 km/h 91 % 1.52 mm
21:14 10.7 °C 9.3 °C 1004.3 hPa NNE 5.6 km/h 2.1 km/h 91 % 1.52 mm
21:19 10.6 °C 9.2 °C 1004.3 hPa NNE 5.6 km/h 4.8 km/h 91 % 1.52 mm
21:24 10.6 °C 9.2 °C 1004.3 hPa NNE 5.6 km/h 3.7 km/h 91 % 1.27 mm
21:29 10.6 °C 9.2 °C 1004.3 hPa NNE 7.4 km/h 5.1 km/h 91 % 1.27 mm
21:34 10.5 °C 9.1 °C 1003.9 hPa NNE 5.6 km/h 3.9 km/h 91 % 1.02 mm
21:39 10.5 °C 9.3 °C 1003.9 hPa NNE 5.6 km/h 4.2 km/h 92 % 1.02 mm
21:44 10.4 °C 9.2 °C 1003.6 hPa NNE 3.7 km/h 4.2 km/h 92 % 1.02 mm
21:49 10.4 °C 9.2 °C 1003.6 hPa NNE 5.6 km/h 3.1 km/h 92 % 0.76 mm
21:54 10.4 °C 9.2 °C 1003.6 hPa NNE 9.3 km/h 6.4 km/h 92 % 0.51 mm
21:59 10.4 °C 9.2 °C 1003.6 hPa NNE 3.7 km/h 4.2 km/h 92 % 0.51 mm
22:04 10.4 °C 9.2 °C 1003.6 hPa NNE 7.4 km/h 5.1 km/h 92 % 0.51 mm
22:09 10.5 °C 9.3 °C 1003.6 hPa NNE 18.5 km/h 7.7 km/h 92 % 0.25 mm
22:14 10.6 °C 9.4 °C 1003.3 hPa NNE 13 km/h 6.6 km/h 92 % 0 mm
22:19 10.7 °C 9.3 °C 1003.3 hPa NNE 11.1 km/h 5.5 km/h 91 % 0 mm
22:24 10.7 °C 9.3 °C 1003.3 hPa NNE 13 km/h 5.5 km/h 91 % 0 mm
22:29 10.8 °C 9.4 °C 1002.9 hPa NNE 13 km/h 4.5 km/h 91 % 0 mm
22:34 10.8 °C 9.4 °C 1002.9 hPa NNE 8 km/h 7.4 km/h 91 % 0 mm
22:39 10.8 °C 9.3 °C 1002.9 hPa NNE 16.7 km/h 5.5 km/h 90 % 0 mm
22:44 10.8 °C 9.3 °C 1002.6 hPa NNE 13 km/h 5.3 km/h 90 % 0 mm
22:49 10.9 °C 9.3 °C 1002.6 hPa NNE 18.5 km/h 6 km/h 90 % 0 mm
22:54 10.9 °C 9.4 °C 1002.6 hPa NNE 16.7 km/h 9.8 km/h 90 % 0 mm
22:59 10.9 °C 9.4 °C 1002.6 hPa NNE 9.7 km/h 3.2 km/h 90 % 0 mm
23:04 10.9 °C 9.4 °C 1002.3 hPa NNE 8 km/h 6.3 km/h 90 % 0 mm
23:09 10.9 °C 9.4 °C 1002.3 hPa NNE 9.7 km/h 6.8 km/h 90 % 0 mm
23:14 10.9 °C 9.4 °C 1001.9 hPa NNE 16.7 km/h 9.8 km/h 90 % 0 mm
23:19 10.9 °C 9.4 °C 1001.9 hPa NNE 20.4 km/h 10.6 km/h 90 % 0 mm
23:24 10.9 °C 9.4 °C 1001.9 hPa NNE 16.7 km/h 9.8 km/h 90 % 0 mm
23:29 10.9 °C 9.4 °C 1001.9 hPa NNE 18.5 km/h 10 km/h 90 % 0 mm
23:34 10.9 °C 9.3 °C 1001.6 hPa NE 18.5 km/h 10.8 km/h 90 % 0 mm
23:39 10.9 °C 9.3 °C 1001.6 hPa NNE 18.5 km/h 11.4 km/h 90 % 0 mm
23:44 10.9 °C 9.3 °C 1001.2 hPa NNE 16.7 km/h 12.1 km/h 90 % 0 mm
23:49 10.9 °C 9.3 °C 1001.2 hPa NNE 22.2 km/h 18.7 km/h 90 % 0 mm
23:54 11 °C 9.3 °C 1001.2 hPa NNE 14.8 km/h 10.6 km/h 89 % 0 mm
23:59 11.1 °C 9.3 °C 1001.2 hPa NNE 18.5 km/h 15 km/h 89 % 0 mm
Ararat Weather
Compliments of Weather Underground - 2.25 mb
Click here to send mail.


ABOUT

Live weather data from Ararat, Victoria, Australia, 3377
Data uploaded from Cumulus every 5 minutes to Weather Underground.
This site then downloads the raw data for formatting and display.
Metric and imperial data can be displayed. Graphs and historical data available.
Includes Sun and Moon times and rain image live from BOM.

Check out Ararat Weather on Facebook, Twitter and Google +

Help support ongoing costs by checking out the ads





Follow @AraratWeather